sensor_id;sensor_type;location;lat;lon;timestamp;P1;durP1;ratioP1;P2;durP2;ratioP2
7076;SDS011;3579;48.956;9.154;2022-10-13T00:01:32;2.67;;;2.30;;
7076;SDS011;3579;48.956;9.154;2022-10-13T00:03:58;2.80;;;2.53;;
7076;SDS011;3579;48.956;9.154;2022-10-13T00:06:25;3.17;;;2.43;;
7076;SDS011;3579;48.956;9.154;2022-10-13T00:08:51;2.60;;;2.40;;
7076;SDS011;3579;48.956;9.154;2022-10-13T00:11:22;2.80;;;2.57;;
7076;SDS011;3579;48.956;9.154;2022-10-13T00:13:50;3.27;;;2.80;;
7076;SDS011;3579;48.956;9.154;2022-10-13T00:16:18;3.00;;;2.20;;
7076;SDS011;3579;48.956;9.154;2022-10-13T00:18:45;3.27;;;2.50;;
7076;SDS011;3579;48.956;9.154;2022-10-13T00:21:13;3.07;;;2.77;;
7076;SDS011;3579;48.956;9.154;2022-10-13T00:23:40;3.27;;;2.60;;
7076;SDS011;3579;48.956;9.154;2022-10-13T00:26:08;2.83;;;2.57;;
7076;SDS011;3579;48.956;9.154;2022-10-13T00:28:35;3.07;;;2.77;;
7076;SDS011;3579;48.956;9.154;2022-10-13T00:31:02;2.60;;;2.37;;
7076;SDS011;3579;48.956;9.154;2022-10-13T00:33:28;2.67;;;2.40;;
7076;SDS011;3579;48.956;9.154;2022-10-13T00:35:54;3.10;;;2.53;;
7076;SDS011;3579;48.956;9.154;2022-10-13T00:38:20;2.70;;;2.50;;
7076;SDS011;3579;48.956;9.154;2022-10-13T00:40:48;2.70;;;2.40;;
7076;SDS011;3579;48.956;9.154;2022-10-13T00:46:12;3.10;;;2.70;;
7076;SDS011;3579;48.956;9.154;2022-10-13T00:48:38;3.47;;;2.60;;
7076;SDS011;3579;48.956;9.154;2022-10-13T00:51:06;4.13;;;2.70;;
7076;SDS011;3579;48.956;9.154;2022-10-13T00:53:33;2.90;;;2.57;;
7076;SDS011;3579;48.956;9.154;2022-10-13T00:56:02;2.67;;;2.40;;
7076;SDS011;3579;48.956;9.154;2022-10-13T00:58:29;2.63;;;2.30;;
7076;SDS011;3579;48.956;9.154;2022-10-13T01:00:57;2.93;;;2.57;;
7076;SDS011;3579;48.956;9.154;2022-10-13T01:03:26;2.40;;;2.20;;
7076;SDS011;3579;48.956;9.154;2022-10-13T01:05:52;2.50;;;2.30;;
7076;SDS011;3579;48.956;9.154;2022-10-13T01:08:22;2.53;;;2.33;;
7076;SDS011;3579;48.956;9.154;2022-10-13T01:11:00;2.97;;;2.60;;
7076;SDS011;3579;48.956;9.154;2022-10-13T01:25:16;2.60;;;2.40;;
7076;SDS011;3579;48.956;9.154;2022-10-13T01:28:17;2.60;;;2.40;;
7076;SDS011;3579;48.956;9.154;2022-10-13T01:31:05;3.07;;;2.83;;
7076;SDS011;3579;48.956;9.154;2022-10-13T01:33:56;2.77;;;2.50;;
7076;SDS011;3579;48.956;9.154;2022-10-13T01:39:23;2.90;;;2.50;;
7076;SDS011;3579;48.956;9.154;2022-10-13T01:42:03;2.67;;;2.40;;
7076;SDS011;3579;48.956;9.154;2022-10-13T01:44:40;2.40;;;2.20;;
7076;SDS011;3579;48.956;9.154;2022-10-13T01:47:10;3.13;;;2.50;;
7076;SDS011;3579;48.956;9.154;2022-10-13T01:49:39;3.03;;;2.30;;
7076;SDS011;3579;48.956;9.154;2022-10-13T01:52:08;3.10;;;2.60;;
7076;SDS011;3579;48.956;9.154;2022-10-13T01:54:38;2.80;;;2.50;;
7076;SDS011;3579;48.956;9.154;2022-10-13T01:57:25;4.23;;;2.50;;
7076;SDS011;3579;48.956;9.154;2022-10-13T02:00:00;2.73;;;2.47;;
7076;SDS011;3579;48.956;9.154;2022-10-13T02:02:33;2.87;;;2.43;;
7076;SDS011;3579;48.956;9.154;2022-10-13T02:10:49;3.33;;;2.63;;
7076;SDS011;3579;48.956;9.154;2022-10-13T02:13:22;2.83;;;2.33;;
7076;SDS011;3579;48.956;9.154;2022-10-13T02:15:52;4.57;;;2.77;;
7076;SDS011;3579;48.956;9.154;2022-10-13T02:18:20;3.07;;;2.67;;
7076;SDS011;3579;48.956;9.154;2022-10-13T02:20:51;2.97;;;2.20;;
7076;SDS011;3579;48.956;9.154;2022-10-13T02:23:18;2.87;;;2.50;;
7076;SDS011;3579;48.956;9.154;2022-10-13T02:25:44;2.53;;;2.33;;
7076;SDS011;3579;48.956;9.154;2022-10-13T02:28:13;2.73;;;2.50;;
7076;SDS011;3579;48.956;9.154;2022-10-13T02:30:40;2.97;;;2.40;;
7076;SDS011;3579;48.956;9.154;2022-10-13T02:33:07;2.83;;;2.43;;
7076;SDS011;3579;48.956;9.154;2022-10-13T02:35:33;3.33;;;2.53;;
7076;SDS011;3579;48.956;9.154;2022-10-13T02:38:00;2.90;;;2.60;;
7076;SDS011;3579;48.956;9.154;2022-10-13T02:40:26;2.50;;;2.30;;
7076;SDS011;3579;48.956;9.154;2022-10-13T02:42:52;2.60;;;2.40;;
7076;SDS011;3579;48.956;9.154;2022-10-13T02:45:19;2.40;;;2.20;;
7076;SDS011;3579;48.956;9.154;2022-10-13T02:47:45;2.63;;;2.40;;
7076;SDS011;3579;48.956;9.154;2022-10-13T02:50:11;2.93;;;2.47;;
7076;SDS011;3579;48.956;9.154;2022-10-13T02:52:38;2.47;;;2.27;;
7076;SDS011;3579;48.956;9.154;2022-10-13T02:55:04;3.00;;;2.47;;
7076;SDS011;3579;48.956;9.154;2022-10-13T02:57:31;2.33;;;2.13;;
7076;SDS011;3579;48.956;9.154;2022-10-13T02:59:57;2.70;;;2.50;;
7076;SDS011;3579;48.956;9.154;2022-10-13T03:02:23;3.17;;;2.47;;
7076;SDS011;3579;48.956;9.154;2022-10-13T03:04:51;2.37;;;2.10;;
7076;SDS011;3579;48.956;9.154;2022-10-13T03:07:17;2.80;;;2.40;;
7076;SDS011;3579;48.956;9.154;2022-10-13T03:09:43;3.83;;;2.50;;
7076;SDS011;3579;48.956;9.154;2022-10-13T03:12:09;2.90;;;2.40;;
7076;SDS011;3579;48.956;9.154;2022-10-13T03:14:35;2.97;;;2.40;;
7076;SDS011;3579;48.956;9.154;2022-10-13T03:17:01;2.47;;;2.27;;
7076;SDS011;3579;48.956;9.154;2022-10-13T03:19:28;2.57;;;2.37;;
7076;SDS011;3579;48.956;9.154;2022-10-13T03:21:54;2.63;;;2.30;;
7076;SDS011;3579;48.956;9.154;2022-10-13T03:24:20;2.40;;;2.20;;
7076;SDS011;3579;48.956;9.154;2022-10-13T03:26:46;2.53;;;2.33;;
7076;SDS011;3579;48.956;9.154;2022-10-13T03:29:15;3.13;;;2.40;;
7076;SDS011;3579;48.956;9.154;2022-10-13T03:31:42;2.50;;;2.30;;
7076;SDS011;3579;48.956;9.154;2022-10-13T03:34:09;3.03;;;2.40;;
7076;SDS011;3579;48.956;9.154;2022-10-13T03:36:36;2.93;;;2.43;;
7076;SDS011;3579;48.956;9.154;2022-10-13T03:39:02;3.07;;;2.57;;
7076;SDS011;3579;48.956;9.154;2022-10-13T03:41:28;3.23;;;2.40;;
7076;SDS011;3579;48.956;9.154;2022-10-13T03:43:54;2.30;;;2.10;;
7076;SDS011;3579;48.956;9.154;2022-10-13T03:46:20;3.20;;;2.50;;
7076;SDS011;3579;48.956;9.154;2022-10-13T03:48:49;2.53;;;2.20;;
7076;SDS011;3579;48.956;9.154;2022-10-13T03:51:16;2.50;;;2.27;;
7076;SDS011;3579;48.956;9.154;2022-10-13T03:53:43;2.40;;;2.20;;
7076;SDS011;3579;48.956;9.154;2022-10-13T03:56:14;3.07;;;2.33;;
7076;SDS011;3579;48.956;9.154;2022-10-13T03:58:42;2.83;;;2.30;;
7076;SDS011;3579;48.956;9.154;2022-10-13T04:01:09;2.47;;;2.27;;
7076;SDS011;3579;48.956;9.154;2022-10-13T04:03:37;2.77;;;2.57;;
7076;SDS011;3579;48.956;9.154;2022-10-13T04:06:03;2.50;;;2.30;;
7076;SDS011;3579;48.956;9.154;2022-10-13T04:08:30;2.70;;;2.17;;
7076;SDS011;3579;48.956;9.154;2022-10-13T04:10:58;2.50;;;2.30;;
7076;SDS011;3579;48.956;9.154;2022-10-13T04:13:32;2.83;;;2.37;;
7076;SDS011;3579;48.956;9.154;2022-10-13T04:16:02;2.80;;;2.37;;
7076;SDS011;3579;48.956;9.154;2022-10-13T04:18:29;2.57;;;2.30;;
7076;SDS011;3579;48.956;9.154;2022-10-13T04:20:55;2.27;;;1.90;;
7076;SDS011;3579;48.956;9.154;2022-10-13T04:23:21;2.97;;;2.40;;
7076;SDS011;3579;48.956;9.154;2022-10-13T04:25:47;2.63;;;2.33;;
7076;SDS011;3579;48.956;9.154;2022-10-13T04:28:13;2.47;;;2.20;;
7076;SDS011;3579;48.956;9.154;2022-10-13T04:30:40;2.43;;;2.23;;
7076;SDS011;3579;48.956;9.154;2022-10-13T04:33:06;2.87;;;2.63;;
7076;SDS011;3579;48.956;9.154;2022-10-13T04:35:32;2.40;;;2.20;;
7076;SDS011;3579;48.956;9.154;2022-10-13T04:37:58;2.40;;;2.20;;
7076;SDS011;3579;48.956;9.154;2022-10-13T04:40:25;2.50;;;2.30;;
7076;SDS011;3579;48.956;9.154;2022-10-13T04:42:52;2.53;;;2.33;;
7076;SDS011;3579;48.956;9.154;2022-10-13T04:45:18;2.23;;;2.03;;
7076;SDS011;3579;48.956;9.154;2022-10-13T04:47:44;2.60;;;2.40;;
7076;SDS011;3579;48.956;9.154;2022-10-13T04:50:10;2.40;;;2.20;;
7076;SDS011;3579;48.956;9.154;2022-10-13T04:52:36;2.70;;;2.50;;
7076;SDS011;3579;48.956;9.154;2022-10-13T04:55:02;2.43;;;2.23;;
7076;SDS011;3579;48.956;9.154;2022-10-13T04:57:28;2.37;;;2.17;;
7076;SDS011;3579;48.956;9.154;2022-10-13T04:59:54;2.40;;;2.20;;
7076;SDS011;3579;48.956;9.154;2022-10-13T05:02:20;3.13;;;2.40;;
7076;SDS011;3579;48.956;9.154;2022-10-13T05:04:46;2.67;;;2.33;;
7076;SDS011;3579;48.956;9.154;2022-10-13T05:07:13;3.10;;;2.37;;
7076;SDS011;3579;48.956;9.154;2022-10-13T05:09:39;2.33;;;2.13;;
7076;SDS011;3579;48.956;9.154;2022-10-13T05:12:05;2.30;;;2.10;;
7076;SDS011;3579;48.956;9.154;2022-10-13T05:14:31;2.47;;;2.27;;
7076;SDS011;3579;48.956;9.154;2022-10-13T05:16:59;3.13;;;2.40;;
7076;SDS011;3579;48.956;9.154;2022-10-13T05:19:26;2.57;;;2.20;;
7076;SDS011;3579;48.956;9.154;2022-10-13T05:21:53;2.53;;;2.30;;
7076;SDS011;3579;48.956;9.154;2022-10-13T05:24:19;3.53;;;2.00;;
7076;SDS011;3579;48.956;9.154;2022-10-13T05:26:55;2.47;;;2.27;;
7076;SDS011;3579;48.956;9.154;2022-10-13T05:29:22;2.50;;;2.30;;
7076;SDS011;3579;48.956;9.154;2022-10-13T05:31:48;2.40;;;2.20;;
7076;SDS011;3579;48.956;9.154;2022-10-13T05:34:14;2.97;;;2.30;;
7076;SDS011;3579;48.956;9.154;2022-10-13T05:36:40;2.70;;;2.20;;
7076;SDS011;3579;48.956;9.154;2022-10-13T05:39:07;2.73;;;2.37;;
7076;SDS011;3579;48.956;9.154;2022-10-13T05:41:34;3.80;;;2.60;;
7076;SDS011;3579;48.956;9.154;2022-10-13T05:44:01;2.37;;;2.17;;
7076;SDS011;3579;48.956;9.154;2022-10-13T05:46:29;2.43;;;2.23;;
7076;SDS011;3579;48.956;9.154;2022-10-13T05:48:55;2.20;;;2.00;;
7076;SDS011;3579;48.956;9.154;2022-10-13T05:51:23;2.60;;;2.10;;
7076;SDS011;3579;48.956;9.154;2022-10-13T05:53:52;2.77;;;2.43;;
7076;SDS011;3579;48.956;9.154;2022-10-13T05:56:31;2.40;;;2.20;;
7076;SDS011;3579;48.956;9.154;2022-10-13T05:59:03;2.47;;;2.27;;
7076;SDS011;3579;48.956;9.154;2022-10-13T06:01:33;2.33;;;2.07;;
7076;SDS011;3579;48.956;9.154;2022-10-13T06:04:05;2.50;;;2.30;;
7076;SDS011;3579;48.956;9.154;2022-10-13T06:06:36;2.60;;;2.40;;
7076;SDS011;3579;48.956;9.154;2022-10-13T06:09:02;2.87;;;2.50;;
7076;SDS011;3579;48.956;9.154;2022-10-13T06:11:29;2.57;;;2.30;;
7076;SDS011;3579;48.956;9.154;2022-10-13T06:13:55;3.53;;;2.40;;
7076;SDS011;3579;48.956;9.154;2022-10-13T06:16:21;2.50;;;2.30;;
7076;SDS011;3579;48.956;9.154;2022-10-13T06:18:47;2.87;;;2.20;;
7076;SDS011;3579;48.956;9.154;2022-10-13T06:21:13;2.43;;;2.20;;
7076;SDS011;3579;48.956;9.154;2022-10-13T06:23:39;3.10;;;2.50;;
7076;SDS011;3579;48.956;9.154;2022-10-13T06:26:06;2.30;;;2.10;;
7076;SDS011;3579;48.956;9.154;2022-10-13T06:28:33;2.27;;;2.07;;
7076;SDS011;3579;48.956;9.154;2022-10-13T06:31:02;2.33;;;2.10;;
7076;SDS011;3579;48.956;9.154;2022-10-13T06:33:31;2.17;;;1.97;;
7076;SDS011;3579;48.956;9.154;2022-10-13T06:36:04;3.67;;;2.40;;
7076;SDS011;3579;48.956;9.154;2022-10-13T06:38:31;4.53;;;2.30;;
7076;SDS011;3579;48.956;9.154;2022-10-13T06:40:58;2.80;;;2.20;;
7076;SDS011;3579;48.956;9.154;2022-10-13T06:43:25;3.50;;;2.20;;
7076;SDS011;3579;48.956;9.154;2022-10-13T06:45:52;3.77;;;2.53;;
7076;SDS011;3579;48.956;9.154;2022-10-13T06:48:18;2.57;;;2.23;;
7076;SDS011;3579;48.956;9.154;2022-10-13T06:50:44;3.07;;;2.13;;
7076;SDS011;3579;48.956;9.154;2022-10-13T06:53:10;2.40;;;2.20;;
7076;SDS011;3579;48.956;9.154;2022-10-13T06:55:36;2.80;;;2.13;;
7076;SDS011;3579;48.956;9.154;2022-10-13T06:58:04;4.53;;;2.53;;
7076;SDS011;3579;48.956;9.154;2022-10-13T07:00:31;4.20;;;2.30;;
7076;SDS011;3579;48.956;9.154;2022-10-13T07:02:57;3.57;;;2.10;;
7076;SDS011;3579;48.956;9.154;2022-10-13T07:05:24;4.73;;;2.60;;
7076;SDS011;3579;48.956;9.154;2022-10-13T07:07:51;4.47;;;2.17;;
7076;SDS011;3579;48.956;9.154;2022-10-13T07:10:18;6.03;;;2.30;;
7076;SDS011;3579;48.956;9.154;2022-10-13T07:12:45;3.60;;;2.37;;
7076;SDS011;3579;48.956;9.154;2022-10-13T07:15:11;4.63;;;2.50;;
7076;SDS011;3579;48.956;9.154;2022-10-13T07:17:38;4.60;;;2.73;;
7076;SDS011;3579;48.956;9.154;2022-10-13T07:20:04;5.53;;;3.00;;
7076;SDS011;3579;48.956;9.154;2022-10-13T07:22:31;4.80;;;3.00;;
7076;SDS011;3579;48.956;9.154;2022-10-13T07:24:58;6.50;;;3.10;;
7076;SDS011;3579;48.956;9.154;2022-10-13T07:27:24;10.50;;;3.00;;
7076;SDS011;3579;48.956;9.154;2022-10-13T07:29:50;6.53;;;2.83;;
7076;SDS011;3579;48.956;9.154;2022-10-13T07:32:16;5.70;;;3.07;;
7076;SDS011;3579;48.956;9.154;2022-10-13T07:34:54;7.07;;;3.00;;
7076;SDS011;3579;48.956;9.154;2022-10-13T07:38:43;6.37;;;2.90;;
7076;SDS011;3579;48.956;9.154;2022-10-13T07:41:10;3.90;;;2.73;;
7076;SDS011;3579;48.956;9.154;2022-10-13T07:43:37;5.53;;;3.00;;
7076;SDS011;3579;48.956;9.154;2022-10-13T07:46:05;3.60;;;2.67;;
7076;SDS011;3579;48.956;9.154;2022-10-13T07:48:32;8.10;;;3.27;;
7076;SDS011;3579;48.956;9.154;2022-10-13T07:51:07;8.17;;;2.80;;
7076;SDS011;3579;48.956;9.154;2022-10-13T07:53:36;8.47;;;3.10;;
7076;SDS011;3579;48.956;9.154;2022-10-13T07:56:03;6.00;;;2.90;;
7076;SDS011;3579;48.956;9.154;2022-10-13T07:58:32;6.20;;;3.20;;
7076;SDS011;3579;48.956;9.154;2022-10-13T08:01:01;5.63;;;3.00;;
7076;SDS011;3579;48.956;9.154;2022-10-13T08:03:28;9.40;;;2.73;;
7076;SDS011;3579;48.956;9.154;2022-10-13T08:05:57;8.43;;;3.07;;
7076;SDS011;3579;48.956;9.154;2022-10-13T08:08:24;6.43;;;3.03;;
7076;SDS011;3579;48.956;9.154;2022-10-13T08:10:50;9.57;;;3.10;;
7076;SDS011;3579;48.956;9.154;2022-10-13T08:13:17;4.53;;;2.60;;
7076;SDS011;3579;48.956;9.154;2022-10-13T08:15:43;7.97;;;2.87;;
7076;SDS011;3579;48.956;9.154;2022-10-13T08:18:12;7.37;;;3.07;;
7076;SDS011;3579;48.956;9.154;2022-10-13T08:20:42;6.53;;;2.87;;
7076;SDS011;3579;48.956;9.154;2022-10-13T08:23:10;5.70;;;2.90;;
7076;SDS011;3579;48.956;9.154;2022-10-13T08:25:39;7.40;;;3.10;;
7076;SDS011;3579;48.956;9.154;2022-10-13T08:28:22;6.93;;;3.20;;
7076;SDS011;3579;48.956;9.154;2022-10-13T08:30:51;8.63;;;3.23;;
7076;SDS011;3579;48.956;9.154;2022-10-13T08:33:18;8.17;;;3.07;;
7076;SDS011;3579;48.956;9.154;2022-10-13T08:35:45;7.87;;;3.10;;
7076;SDS011;3579;48.956;9.154;2022-10-13T08:38:11;8.67;;;3.40;;
7076;SDS011;3579;48.956;9.154;2022-10-13T08:40:38;8.17;;;2.83;;
7076;SDS011;3579;48.956;9.154;2022-10-13T08:43:10;9.67;;;3.23;;
7076;SDS011;3579;48.956;9.154;2022-10-13T08:45:39;5.10;;;2.80;;
7076;SDS011;3579;48.956;9.154;2022-10-13T08:48:11;7.20;;;3.13;;
7076;SDS011;3579;48.956;9.154;2022-10-13T08:50:44;7.60;;;2.97;;
7076;SDS011;3579;48.956;9.154;2022-10-13T08:56:09;7.13;;;3.07;;
7076;SDS011;3579;48.956;9.154;2022-10-13T08:58:42;5.63;;;3.13;;
7076;SDS011;3579;48.956;9.154;2022-10-13T09:08:46;7.80;;;2.77;;
7076;SDS011;3579;48.956;9.154;2022-10-13T09:11:19;8.80;;;3.10;;
7076;SDS011;3579;48.956;9.154;2022-10-13T09:13:45;9.63;;;3.90;;
7076;SDS011;3579;48.956;9.154;2022-10-13T09:16:13;7.10;;;3.70;;
7076;SDS011;3579;48.956;9.154;2022-10-13T09:18:39;6.80;;;3.90;;
7076;SDS011;3579;48.956;9.154;2022-10-13T09:21:17;5.60;;;4.00;;
7076;SDS011;3579;48.956;9.154;2022-10-13T09:23:49;8.90;;;3.80;;
7076;SDS011;3579;48.956;9.154;2022-10-13T09:26:22;8.05;;;4.47;;
7076;SDS011;3579;48.956;9.154;2022-10-13T09:28:50;8.03;;;3.40;;
7076;SDS011;3579;48.956;9.154;2022-10-13T09:34:02;6.70;;;3.20;;
7076;SDS011;3579;48.956;9.154;2022-10-13T09:36:36;7.63;;;3.70;;
7076;SDS011;3579;48.956;9.154;2022-10-13T09:39:06;6.00;;;3.43;;
7076;SDS011;3579;48.956;9.154;2022-10-13T09:41:38;17.23;;;15.50;;
7076;SDS011;3579;48.956;9.154;2022-10-13T09:44:13;8.07;;;3.33;;
7076;SDS011;3579;48.956;9.154;2022-10-13T09:46:51;6.63;;;3.40;;
7076;SDS011;3579;48.956;9.154;2022-10-13T10:02:30;6.67;;;3.57;;
7076;SDS011;3579;48.956;9.154;2022-10-13T10:05:06;5.73;;;3.10;;
7076;SDS011;3579;48.956;9.154;2022-10-13T10:07:40;7.27;;;3.60;;
7076;SDS011;3579;48.956;9.154;2022-10-13T10:13:00;8.17;;;3.30;;
7076;SDS011;3579;48.956;9.154;2022-10-13T10:18:17;7.13;;;3.40;;
7076;SDS011;3579;48.956;9.154;2022-10-13T10:21:29;6.97;;;3.30;;
7076;SDS011;3579;48.956;9.154;2022-10-13T10:29:18;5.77;;;3.33;;
7076;SDS011;3579;48.956;9.154;2022-10-13T10:35:03;7.23;;;3.07;;
7076;SDS011;3579;48.956;9.154;2022-10-13T10:43:25;7.17;;;3.13;;
7076;SDS011;3579;48.956;9.154;2022-10-13T10:45:54;9.93;;;2.90;;
7076;SDS011;3579;48.956;9.154;2022-10-13T10:48:24;9.27;;;4.10;;
7076;SDS011;3579;48.956;9.154;2022-10-13T10:51:07;11.80;;;5.53;;
7076;SDS011;3579;48.956;9.154;2022-10-13T10:53:55;12.83;;;5.27;;
7076;SDS011;3579;48.956;9.154;2022-10-13T10:56:34;11.67;;;5.13;;
7076;SDS011;3579;48.956;9.154;2022-10-13T10:59:06;12.60;;;5.50;;
7076;SDS011;3579;48.956;9.154;2022-10-13T11:04:47;11.63;;;5.80;;
7076;SDS011;3579;48.956;9.154;2022-10-13T11:14:46;8.60;;;5.57;;
7076;SDS011;3579;48.956;9.154;2022-10-13T11:17:17;9.87;;;5.30;;
7076;SDS011;3579;48.956;9.154;2022-10-13T11:19:57;10.27;;;4.93;;
7076;SDS011;3579;48.956;9.154;2022-10-13T11:22:24;8.23;;;4.47;;
7076;SDS011;3579;48.956;9.154;2022-10-13T11:29:58;13.87;;;5.20;;
7076;SDS011;3579;48.956;9.154;2022-10-13T11:43:24;14.50;;;6.70;;
7076;SDS011;3579;48.956;9.154;2022-10-13T11:52:23;19.27;;;6.23;;
7076;SDS011;3579;48.956;9.154;2022-10-13T11:55:10;10.43;;;5.97;;
7076;SDS011;3579;48.956;9.154;2022-10-13T11:57:39;13.47;;;5.33;;
7076;SDS011;3579;48.956;9.154;2022-10-13T12:00:11;15.67;;;6.03;;
7076;SDS011;3579;48.956;9.154;2022-10-13T12:02:46;12.80;;;6.30;;
7076;SDS011;3579;48.956;9.154;2022-10-13T12:07:44;9.00;;;5.70;;
7076;SDS011;3579;48.956;9.154;2022-10-13T12:10:17;10.20;;;5.30;;
7076;SDS011;3579;48.956;9.154;2022-10-13T12:12:51;9.20;;;5.47;;
7076;SDS011;3579;48.956;9.154;2022-10-13T12:15:36;11.53;;;5.80;;
7076;SDS011;3579;48.956;9.154;2022-10-13T12:18:19;11.27;;;5.93;;
7076;SDS011;3579;48.956;9.154;2022-10-13T12:20:52;15.30;;;5.83;;
7076;SDS011;3579;48.956;9.154;2022-10-13T12:23:20;9.67;;;4.80;;
7076;SDS011;3579;48.956;9.154;2022-10-13T12:25:47;9.40;;;5.07;;
7076;SDS011;3579;48.956;9.154;2022-10-13T12:28:21;11.20;;;5.90;;
7076;SDS011;3579;48.956;9.154;2022-10-13T12:30:51;9.57;;;5.57;;
7076;SDS011;3579;48.956;9.154;2022-10-13T12:33:25;11.37;;;5.93;;
7076;SDS011;3579;48.956;9.154;2022-10-13T12:36:09;10.13;;;5.37;;
7076;SDS011;3579;48.956;9.154;2022-10-13T12:38:44;13.27;;;5.70;;
7076;SDS011;3579;48.956;9.154;2022-10-13T12:41:16;10.60;;;5.43;;
7076;SDS011;3579;48.956;9.154;2022-10-13T12:43:44;12.73;;;5.70;;
7076;SDS011;3579;48.956;9.154;2022-10-13T12:46:11;13.17;;;5.70;;
7076;SDS011;3579;48.956;9.154;2022-10-13T12:48:37;13.30;;;7.15;;
7076;SDS011;3579;48.956;9.154;2022-10-13T12:51:10;15.13;;;7.33;;
7076;SDS011;3579;48.956;9.154;2022-10-13T12:53:41;9.47;;;5.87;;
7076;SDS011;3579;48.956;9.154;2022-10-13T12:56:16;10.67;;;5.30;;
7076;SDS011;3579;48.956;9.154;2022-10-13T12:58:47;14.03;;;5.50;;
7076;SDS011;3579;48.956;9.154;2022-10-13T13:03:41;11.43;;;5.97;;
7076;SDS011;3579;48.956;9.154;2022-10-13T13:08:39;13.20;;;5.33;;
7076;SDS011;3579;48.956;9.154;2022-10-13T13:11:31;13.60;;;6.80;;
7076;SDS011;3579;48.956;9.154;2022-10-13T13:19:40;11.90;;;5.57;;
7076;SDS011;3579;48.956;9.154;2022-10-13T13:22:08;14.68;;;5.78;;
7076;SDS011;3579;48.956;9.154;2022-10-13T13:24:34;16.63;;;6.07;;
7076;SDS011;3579;48.956;9.154;2022-10-13T13:27:17;13.90;;;5.67;;
7076;SDS011;3579;48.956;9.154;2022-10-13T13:29:44;10.60;;;4.97;;
7076;SDS011;3579;48.956;9.154;2022-10-13T13:32:15;11.60;;;5.90;;
7076;SDS011;3579;48.956;9.154;2022-10-13T13:34:42;11.30;;;5.00;;
7076;SDS011;3579;48.956;9.154;2022-10-13T13:37:13;9.07;;;5.07;;
7076;SDS011;3579;48.956;9.154;2022-10-13T13:39:47;17.63;;;14.37;;
7076;SDS011;3579;48.956;9.154;2022-10-13T13:42:14;9.90;;;4.40;;
7076;SDS011;3579;48.956;9.154;2022-10-13T13:44:40;11.23;;;4.17;;
7076;SDS011;3579;48.956;9.154;2022-10-13T13:47:17;8.83;;;4.20;;
7076;SDS011;3579;48.956;9.154;2022-10-13T13:49:53;7.80;;;4.13;;
7076;SDS011;3579;48.956;9.154;2022-10-13T13:52:22;9.00;;;4.37;;
7076;SDS011;3579;48.956;9.154;2022-10-13T13:54:50;13.33;;;6.03;;
7076;SDS011;3579;48.956;9.154;2022-10-13T13:57:17;12.60;;;7.27;;
7076;SDS011;3579;48.956;9.154;2022-10-13T13:59:44;16.07;;;6.53;;
7076;SDS011;3579;48.956;9.154;2022-10-13T14:02:12;15.90;;;5.93;;
7076;SDS011;3579;48.956;9.154;2022-10-13T14:04:44;12.33;;;5.87;;
7076;SDS011;3579;48.956;9.154;2022-10-13T14:07:10;8.87;;;4.90;;
7076;SDS011;3579;48.956;9.154;2022-10-13T14:09:37;11.57;;;4.83;;
7076;SDS011;3579;48.956;9.154;2022-10-13T14:12:04;10.73;;;4.30;;
7076;SDS011;3579;48.956;9.154;2022-10-13T14:14:31;11.13;;;4.37;;
7076;SDS011;3579;48.956;9.154;2022-10-13T14:16:58;11.33;;;4.20;;
7076;SDS011;3579;48.956;9.154;2022-10-13T14:19:26;10.53;;;4.00;;
7076;SDS011;3579;48.956;9.154;2022-10-13T14:21:53;8.53;;;3.90;;
7076;SDS011;3579;48.956;9.154;2022-10-13T14:24:19;9.40;;;4.30;;
7076;SDS011;3579;48.956;9.154;2022-10-13T14:26:45;9.33;;;3.90;;
7076;SDS011;3579;48.956;9.154;2022-10-13T14:29:12;11.83;;;4.47;;
7076;SDS011;3579;48.956;9.154;2022-10-13T14:31:38;7.97;;;3.60;;
7076;SDS011;3579;48.956;9.154;2022-10-13T14:34:05;8.27;;;3.70;;
7076;SDS011;3579;48.956;9.154;2022-10-13T14:36:31;7.63;;;3.70;;
7076;SDS011;3579;48.956;9.154;2022-10-13T14:38:58;8.73;;;3.80;;
7076;SDS011;3579;48.956;9.154;2022-10-13T14:41:24;7.47;;;4.20;;
7076;SDS011;3579;48.956;9.154;2022-10-13T14:43:51;6.20;;;3.47;;
7076;SDS011;3579;48.956;9.154;2022-10-13T14:46:20;7.83;;;4.03;;
7076;SDS011;3579;48.956;9.154;2022-10-13T14:48:47;10.60;;;4.00;;
7076;SDS011;3579;48.956;9.154;2022-10-13T14:51:14;10.97;;;3.70;;
7076;SDS011;3579;48.956;9.154;2022-10-13T14:53:41;9.20;;;3.43;;
7076;SDS011;3579;48.956;9.154;2022-10-13T14:56:15;6.67;;;3.47;;
7076;SDS011;3579;48.956;9.154;2022-10-13T14:58:47;6.07;;;3.07;;
7076;SDS011;3579;48.956;9.154;2022-10-13T15:01:15;8.47;;;3.67;;
7076;SDS011;3579;48.956;9.154;2022-10-13T15:03:42;5.93;;;3.87;;
7076;SDS011;3579;48.956;9.154;2022-10-13T15:06:15;5.50;;;3.57;;
7076;SDS011;3579;48.956;9.154;2022-10-13T15:08:46;8.13;;;3.77;;
7076;SDS011;3579;48.956;9.154;2022-10-13T15:11:13;7.50;;;3.73;;
7076;SDS011;3579;48.956;9.154;2022-10-13T15:13:40;8.80;;;3.90;;
7076;SDS011;3579;48.956;9.154;2022-10-13T15:16:07;6.53;;;3.53;;
7076;SDS011;3579;48.956;9.154;2022-10-13T15:18:38;5.40;;;3.20;;
7076;SDS011;3579;48.956;9.154;2022-10-13T15:21:05;8.37;;;3.50;;
7076;SDS011;3579;48.956;9.154;2022-10-13T15:23:32;6.73;;;3.70;;
7076;SDS011;3579;48.956;9.154;2022-10-13T15:25:59;7.43;;;3.63;;
7076;SDS011;3579;48.956;9.154;2022-10-13T15:28:27;10.13;;;3.47;;
7076;SDS011;3579;48.956;9.154;2022-10-13T15:31:01;5.10;;;3.70;;
7076;SDS011;3579;48.956;9.154;2022-10-13T15:33:28;5.67;;;3.63;;
7076;SDS011;3579;48.956;9.154;2022-10-13T15:35:55;3.90;;;3.17;;
7076;SDS011;3579;48.956;9.154;2022-10-13T15:38:22;8.10;;;3.30;;
7076;SDS011;3579;48.956;9.154;2022-10-13T15:40:49;5.40;;;3.10;;
7076;SDS011;3579;48.956;9.154;2022-10-13T15:43:15;5.23;;;3.63;;
7076;SDS011;3579;48.956;9.154;2022-10-13T15:45:42;6.20;;;3.43;;
7076;SDS011;3579;48.956;9.154;2022-10-13T15:48:24;5.97;;;3.33;;
7076;SDS011;3579;48.956;9.154;2022-10-13T15:50:51;4.80;;;3.30;;
7076;SDS011;3579;48.956;9.154;2022-10-13T15:53:17;4.03;;;3.07;;
7076;SDS011;3579;48.956;9.154;2022-10-13T15:55:45;7.10;;;3.73;;
7076;SDS011;3579;48.956;9.154;2022-10-13T15:58:12;3.53;;;2.77;;
7076;SDS011;3579;48.956;9.154;2022-10-13T16:00:39;5.57;;;3.07;;
7076;SDS011;3579;48.956;9.154;2022-10-13T16:03:06;4.97;;;3.37;;
7076;SDS011;3579;48.956;9.154;2022-10-13T16:05:38;6.90;;;3.30;;
7076;SDS011;3579;48.956;9.154;2022-10-13T16:08:06;6.03;;;2.93;;
7076;SDS011;3579;48.956;9.154;2022-10-13T16:10:32;4.80;;;3.00;;
7076;SDS011;3579;48.956;9.154;2022-10-13T16:12:59;4.80;;;3.00;;
7076;SDS011;3579;48.956;9.154;2022-10-13T16:15:25;5.30;;;3.00;;
7076;SDS011;3579;48.956;9.154;2022-10-13T16:17:53;5.23;;;3.20;;
7076;SDS011;3579;48.956;9.154;2022-10-13T16:20:19;4.33;;;2.80;;
7076;SDS011;3579;48.956;9.154;2022-10-13T16:22:45;5.13;;;3.23;;
7076;SDS011;3579;48.956;9.154;2022-10-13T16:25:12;4.30;;;3.00;;
7076;SDS011;3579;48.956;9.154;2022-10-13T16:27:38;5.77;;;2.90;;
7076;SDS011;3579;48.956;9.154;2022-10-13T16:30:04;4.33;;;2.90;;
7076;SDS011;3579;48.956;9.154;2022-10-13T16:32:36;4.57;;;3.10;;
7076;SDS011;3579;48.956;9.154;2022-10-13T16:35:05;4.10;;;3.10;;
7076;SDS011;3579;48.956;9.154;2022-10-13T16:37:32;4.80;;;3.00;;
7076;SDS011;3579;48.956;9.154;2022-10-13T16:39:58;4.77;;;2.80;;
7076;SDS011;3579;48.956;9.154;2022-10-13T16:42:24;4.80;;;3.40;;
7076;SDS011;3579;48.956;9.154;2022-10-13T16:44:50;5.10;;;2.97;;
7076;SDS011;3579;48.956;9.154;2022-10-13T16:47:16;3.77;;;2.67;;
7076;SDS011;3579;48.956;9.154;2022-10-13T16:49:42;4.83;;;3.03;;
7076;SDS011;3579;48.956;9.154;2022-10-13T16:52:08;4.53;;;2.80;;
7076;SDS011;3579;48.956;9.154;2022-10-13T16:54:34;4.53;;;2.80;;
7076;SDS011;3579;48.956;9.154;2022-10-13T16:57:00;4.27;;;2.80;;
7076;SDS011;3579;48.956;9.154;2022-10-13T16:59:26;4.97;;;2.87;;
7076;SDS011;3579;48.956;9.154;2022-10-13T17:01:53;3.13;;;2.53;;
7076;SDS011;3579;48.956;9.154;2022-10-13T17:04:19;4.17;;;2.70;;
7076;SDS011;3579;48.956;9.154;2022-10-13T17:06:45;4.47;;;3.30;;
7076;SDS011;3579;48.956;9.154;2022-10-13T17:09:11;3.97;;;2.97;;
7076;SDS011;3579;48.956;9.154;2022-10-13T17:11:38;5.23;;;2.43;;
7076;SDS011;3579;48.956;9.154;2022-10-13T17:14:04;5.13;;;3.30;;
7076;SDS011;3579;48.956;9.154;2022-10-13T17:16:30;3.53;;;2.73;;
7076;SDS011;3579;48.956;9.154;2022-10-13T17:18:57;3.67;;;2.60;;
7076;SDS011;3579;48.956;9.154;2022-10-13T17:21:24;4.80;;;2.80;;